Date,TemperatureHighF,TemperatureAvgF,TemperatureLowF,DewpointHighF,DewpointAvgF,DewpointLowF,HumidityHigh,HumidityAvg,HumidityLow,PressureMaxIn,PressureMinIn,WindSpeedMaxMPH,WindSpeedAvgMPH,GustSpeedMaxMPH,PrecipitationSumIn
2013-1-1,27,21,12,23,19,11,95,89,73,28.85,28.70,16,6,16,0.00
2013-1-2,35,21,10,28,17,8,98,85,65,28.83,28.69,12,4,15,0.00
2013-1-3,36,24,14,24,20,11,97,84,55,29.01,28.83,10,2,11,0.01
2013-1-4,46,27,11,28,20,8,94,78,45,28.94,28.77,20,5,22,0.00
2013-1-5,46,36,22,32,28,16,89,73,49,28.83,28.66,20,8,23,0.00
2013-1-6,49,33,20,26,22,16,89,65,36,28.96,28.79,13,4,14,0.00
2013-1-7,53,38,26,28,25,21,79,60,35,28.79,28.58,22,10,25,0.00
2013-1-8,54,37,29,33,29,24,89,73,43,28.61,28.53,24,10,25,0.00
2013-1-9,52,43,25,35,31,24,94,64,46,28.98,28.79,10,4,11,0.00
2013-1-10,47,44,40,46,42,33,100,94,58,28.82,28.31,15,5,20,0.62
2013-1-11,56,49,37,48,43,24,100,82,34,28.44,28.11,24,13,26,0.00
2013-1-12,37,26,20,32,18,11,82,66,56,28.68,28.44,19,9,22,0.00
2013-1-13,29,18,11,14,9,4,85,65,41,28.89,28.65,17,6,20,0.00
2013-1-14,32,20,9,16,12,8,91,70,43,29.01,28.88,10,2,15,0.00
2013-1-15,36,23,13,18,15,11,92,68,41,28.89,28.72,9,2,11,0.00
2013-1-16,54,32,15,32,23,11,88,70,43,28.82,28.62,13,3,13,0.00
2013-1-17,54,38,25,33,28,23,92,70,40,29.06,28.82,10,3,11,0.00
2013-1-18,59,42,29,35,31,26,89,66,36,28.95,28.62,27,11,32,0.00
2013-1-19,63,41,26,33,27,23,95,64,25,28.81,28.58,14,4,18,0.00
2013-1-20,48,34,23,29,22,11,92,62,41,28.94,28.77,21,6,22,0.00
2013-1-21,37,25,14,16,14,8,84,61,39,28.98,28.81,12,4,14,0.00
2013-1-22,42,25,15,21,15,8,82,64,40,28.83,28.74,12,4,14,0.00
2013-1-23,57,33,15,31,22,14,92,66,36,28.91,28.71,16,4,20,0.00
2013-1-24,30,23,16,24,15,8,91,67,39,28.93,28.68,16,7,20,0.00
2013-1-25,52,35,18,28,24,18,95,65,36,28.83,28.68,9,2,10,0.00
2013-1-26,57,44,30,39,30,24,84,61,33,28.80,28.58,23,8,24,0.00
2013-1-27,67,51,41,57,47,38,100,88,65,28.58,28.29,30,13,33,0.01
2013-1-28,73,56,36,60,48,35,100,79,37,28.41,28.23,34,12,35,0.01
2013-1-29,63,41,33,60,37,31,95,87,72,28.28,28.13,17,8,24,0.00
2013-1-30,33,26,17,32,23,16,95,83,66,28.54,28.21,24,8,30,0.01
2013-1-31,27,22,13,23,16,8,91,76,56,28.97,28.51,23,6,24,0.00
2013-2-1,35,23,11,16,12,8,86,61,36,28.94,28.69,20,6,21,0.00
2013-2-2,55,40,25,35,27,16,89,61,37,28.84,28.70,17,5,18,0.00
2013-2-3,56,43,23,31,25,18,86,52,29,28.84,28.42,23,8,24,0.00
2013-2-4,52,42,27,32,30,24,84,62,44,28.55,28.39,17,6,20,0.00
2013-2-5,63,42,22,32,27,21,95,60,25,28.63,28.48,15,4,15,0.00
2013-2-6,58,49,36,54,42,28,96,77,52,28.62,28.42,23,8,24,0.00
2013-2-7,55,47,32,53,41,28,100,80,46,28.78,28.42,21,7,24,0.12
2013-2-8,44,33,26,35,30,24,99,87,66,28.90,28.69,15,5,18,0.00
2013-2-9,49,40,33,41,36,31,100,87,73,28.69,28.21,24,10,29,0.01
2013-2-10,48,42,34,46,32,24,100,70,47,28.63,28.07,32,12,36,0.04
2013-2-11,46,34,26,24,22,18,82,62,35,28.80,28.63,15,4,16,0.00
2013-2-12,41,33,26,26,24,21,93,69,48,28.73,28.56,8,2,9,0.00
2013-2-13,56,37,18,28,23,16,97,61,25,28.57,28.45,19,5,22,0.00
2013-2-14,49,39,30,33,26,18,81,60,44,28.85,28.49,20,5,24,0.00
2013-2-15,42,30,17,21,17,11,88,59,35,28.97,28.85,17,6,24,0.00
2013-2-16,48,31,11,29,19,8,86,61,36,28.92,28.56,25,6,27,0.00
2013-2-17,67,46,22,35,28,18,91,55,24,28.56,28.15,25,8,30,0.00
2013-2-18,53,44,25,38,27,16,75,52,37,28.69,28.05,34,13,40,0.00
2013-2-19,43,30,18,21,16,8,82,55,35,28.91,28.70,15,4,19,0.00
2013-2-20,29,26,23,26,18,8,94,71,38,28.81,28.56,21,9,23,0.04
2013-2-21,24,22,17,23,21,16,97,94,89,28.57,28.28,18,8,21,0.00
2013-2-22,27,15,2,18,11,0,92,83,61,28.68,28.45,13,4,17,0.03
2013-2-23,34,16,-2,28,13,-6,93,83,69,28.63,28.47,13,3,14,0.02
2013-2-24,42,33,24,32,27,21,84,75,63,28.49,28.38,17,7,18,0.01
2013-2-25,36,32,30,33,31,29,99,92,81,28.48,28.30,25,12,29,0.12
2013-2-26,35,30,26,31,27,23,98,86,71,28.51,28.30,23,8,25,0.14
2013-2-27,38,31,26,29,26,24,95,81,62,28.74,28.50,20,7,24,0.01
2013-2-28,36,32,25,29,27,23,87,79,72,28.81,28.72,15,6,20,0.00
2013-3-1,34,29,18,28,23,16,90,80,65,28.89,28.77,16,6,20,0.00
2013-3-2,38,25,12,28,20,11,94,81,59,28.92,28.70,8,3,8,0.00
2013-3-3,52,39,23,39,31,21,93,74,57,28.70,28.21,14,6,14,0.00
2013-3-4,45,39,32,38,34,29,95,81,65,28.66,28.16,24,7,25,0.04
2013-3-5,41,34,24,35,22,16,94,62,46,28.94,28.66,27,8,28,0.00
2013-3-6,45,32,20,28,22,16,92,68,43,28.98,28.73,14,5,18,0.00
2013-3-7,65,48,32,33,29,24,74,50,28,28.74,28.58,26,10,26,0.00
2013-3-8,60,52,44,48,40,29,80,64,49,28.66,28.46,25,11,29,0.00
2013-3-9,59,53,42,56,51,40,99,93,78,28.48,28.16,26,10,28,0.76
2013-3-10,42,32,28,40,29,23,97,87,78,28.60,28.20,29,12,34,0.01
2013-3-11,49,34,22,29,21,16,85,62,32,28.60,28.53,19,5,20,0.00
2013-3-12,51,42,30,32,27,23,79,56,36,28.93,28.59,19,5,23,0.00
2013-3-13,55,39,23,32,26,21,94,63,35,29.02,28.81,19,6,22,0.00
2013-3-14,76,52,35,43,37,28,87,59,27,28.82,28.66,15,6,17,0.00
2013-3-15,82,59,38,50,44,36,95,64,26,28.68,28.30,21,6,24,0.00
2013-3-16,61,45,35,50,36,28,85,72,58,28.59,28.32,24,11,28,0.00
2013-3-17,40,36,34,36,32,28,97,81,75,28.59,28.28,22,7,24,0.00
2013-3-18,57,45,36,37,29,21,98,60,23,28.62,28.32,20,6,22,0.00
2013-3-19,52,40,28,32,24,18,88,53,31,28.84,28.61,18,5,18,0.00
2013-3-20,47,36,27,31,21,14,96,56,30,28.98,28.59,17,5,17,0.00
2013-3-21,48,38,34,31,21,16,84,51,33,28.60,28.31,28,11,32,0.00
2013-3-22,48,37,30,35,31,29,97,81,57,28.55,28.43,12,5,15,0.00
2013-3-23,36,33,30,33,31,29,99,94,85,28.55,28.41,23,8,27,0.11
2013-3-24,34,29,23,31,23,18,98,78,56,28.72,28.50,30,11,30,0.01
2013-3-25,34,28,22,23,19,16,86,68,52,28.92,28.72,24,7,24,0.00
2013-3-26,46,31,15,28,22,14,93,68,45,28.99,28.76,18,4,19,0.00
2013-3-27,60,46,36,36,29,23,76,52,35,28.76,28.66,21,8,26,0.00
2013-3-28,67,50,30,46,38,28,93,67,40,28.76,28.65,12,4,13,0.00
2013-3-29,71,58,42,54,49,40,97,73,47,28.74,28.62,15,6,20,0.00
2013-3-30,72,58,47,60,53,46,98,85,54,28.66,28.47,18,5,23,0.49
2013-3-31,66,53,44,50,43,36,99,71,35,28.66,28.55,24,5,24,0.03
2013-4-1,50,40,36,41,31,24,87,68,53,28.88,28.55,20,7,22,0.06
2013-4-2,42,38,32,32,26,23,79,60,45,28.87,28.79,15,5,16,0.10
2013-4-3,39,38,33,36,32,26,96,78,59,28.91,28.81,13,4,17,0.09
2013-4-4,59,46,38,44,38,33,92,74,50,28.82,28.68,10,3,16,0.00
2013-4-5,64,50,33,46,41,33,99,73,50,28.74,28.41,26,11,31,0.00
2013-4-6,75,59,49,50,45,40,79,62,30,28.47,28.30,26,10,31,0.00
2013-4-7,71,59,46,59,50,41,92,74,47,28.47,28.26,19,7,22,0.02
2013-4-8,73,65,58,62,59,57,97,84,62,28.30,28.18,20,9,25,0.00
2013-4-9,72,59,32,62,54,31,95,84,71,28.56,28.15,22,12,27,0.64
2013-4-10,32,31,29,31,29,28,96,94,93,28.61,28.47,8,2,8,0.14
2013-4-11,51,36,28,33,30,26,95,77,47,28.53,28.32,15,4,20,0.16
2013-4-12,58,42,30,38,32,26,92,68,43,28.62,28.44,14,4,15,0.00
2013-4-13,71,55,34,52,42,33,96,64,49,28.64,28.20,26,10,28,0.00
2013-4-14,71,62,53,55,44,26,71,53,21,28.36,28.05,32,14,34,0.00
2013-4-15,53,49,44,40,34,28,74,57,38,28.55,28.33,19,7,22,0.11
2013-4-16,47,43,41,40,33,29,94,68,58,28.67,28.51,23,10,26,0.03
2013-4-17,46,42,40,46,42,39,100,98,94,28.59,28.29,20,7,24,0.44
2013-4-18,40,36,32,39,31,24,98,81,64,28.65,28.30,25,10,30,0.09
2013-4-19,61,44,28,36,29,24,84,57,32,28.68,28.59,23,6,26,0.00
2013-4-20,61,50,37,41,34,29,74,57,37,28.70,28.58,20,8,22,0.00
2013-4-21,68,58,49,45,41,38,70,55,40,28.74,28.64,28,10,30,0.00
2013-4-22,68,53,36,54,45,33,93,74,58,28.72,28.45,32,9,34,0.43
2013-4-23,36,33,31,35,30,26,94,88,72,28.83,28.57,32,10,34,0.42
2013-4-24,57,41,25,38,31,24,96,69,33,28.89,28.77,16,5,20,0.00
2013-4-25,68,51,31,43,36,29,97,63,32,28.89,28.62,23,7,24,0.00
2013-4-26,56,52,49,50,47,37,97,84,47,28.74,28.63,19,7,25,0.18
2013-4-27,68,55,48,53,50,48,100,86,56,28.75,28.60,12,5,15,0.01
2013-4-28,78,58,43,60,52,43,100,81,48,28.61,28.35,20,8,24,0.01
2013-4-29,85,70,53,62,56,50,97,66,40,28.40,28.19,26,9,28,0.00
2013-4-30,83,72,62,62,57,51,81,59,42,28.37,28.25,31,14,32,0.00
2013-5-1,70,54,37,60,48,35,95,79,57,28.89,28.36,29,11,34,0.40
2013-5-2,50,40,34,36,33,26,96,78,40,29.06,28.83,36,12,36,0.75
2013-5-3,56,45,34,33,31,28,84,58,35,28.96,28.60,22,7,27,0.00
2013-5-4,48,42,40,41,34,28,93,71,56,28.71,28.52,23,9,26,0.01
2013-5-5,62,48,42,50,44,40,97,88,65,28.77,28.67,17,5,18,0.00
2013-5-6,68,51,38,53,47,38,100,86,54,28.76,28.63,10,3,12,0.00
2013-5-7,72,59,49,58,52,47,95,79,51,28.68,28.55,16,5,18,0.01
2013-5-8,78,65,56,64,58,51,97,79,57,28.64,28.38,33,8,34,1.01
2013-5-9,72,62,55,59,56,54,96,81,59,28.62,28.45,14,4,17,0.02
2013-5-10,70,60,52,55,52,49,97,78,49,28.71,28.60,17,6,20,0.00
2013-5-11,67,57,46,51,43,33,97,65,31,28.86,28.69,26,6,27,0.00
2013-5-12,70,54,40,45,41,35,97,65,36,28.89,28.67,19,6,20,0.00
2013-5-13,85,66,46,60,50,42,88,61,32,28.71,28.55,15,5,17,0.00
2013-5-14,91,74,57,57,52,47,82,50,23,28.55,28.42,28,10,31,0.00
2013-5-15,82,71,61,65,58,54,91,66,44,28.48,28.41,24,10,27,0.00
2013-5-16,78,68,61,64,60,58,100,79,53,28.50,28.40,16,4,17,0.00
2013-5-17,83,70,57,64,61,56,99,76,50,28.52,28.42,15,5,18,0.00
2013-5-18,83,74,63,73,68,58,93,81,55,28.48,28.25,24,8,35,0.73
2013-5-19,81,67,58,70,61,55,95,82,62,28.43,28.10,41,7,41,0.89
2013-5-20,78,69,54,60,56,49,98,66,47,28.42,28.28,14,3,17,0.00
2013-5-21,72,64,53,51,49,45,84,59,40,28.47,28.34,14,4,15,0.00
2013-5-22,69,57,50,52,48,47,89,73,53,28.52,28.43,15,5,15,0.00
2013-5-23,72,68,62,56,55,53,78,64,56,28.78,28.68,13,6,17,0.00
2013-5-24,76,66,56,66,60,53,91,79,68,28.81,28.65,18,8,23,0.00
2013-5-25,82,74,66,67,65,62,94,75,56,28.70,28.55,28,13,29,0.00
2013-5-26,83,74,66,70,67,63,92,80,63,28.61,28.45,28,12,30,0.00
2013-5-27,82,76,72,71,69,67,90,80,65,28.45,28.18,32,16,36,0.00
2013-5-28,86,76,70,73,69,66,92,79,62,28.35,28.19,32,13,38,0.00
2013-5-29,80,73,62,69,66,60,93,80,65,28.33,28.14,34,16,36,0.47
2013-5-30,80,67,58,66,60,56,99,81,51,28.39,28.15,25,6,34,2.96
2013-5-31,84,73,64,69,64,54,98,76,38,28.39,28.24,10,3,12,0.00
2013-6-1,71,64,56,61,52,48,89,66,55,28.68,28.38,20,6,21,0.00
2013-6-2,70,60,49,50,48,45,90,65,43,28.75,28.61,17,5,18,0.00
2013-6-3,80,66,52,62,54,50,94,69,41,28.63,28.38,24,8,26,0.00
2013-6-4,85,74,66,68,64,60,89,71,51,28.56,28.33,23,8,28,0.08
2013-6-5,70,66,59,66,62,55,97,85,69,28.64,28.47,22,6,26,1.26
2013-6-6,75,65,55,56,54,50,95,71,43,28.64,28.56,15,5,18,0.00
2013-6-7,80,67,53,58,54,52,98,68,40,28.65,28.50,10,3,12,0.00
2013-6-8,83,70,61,62,58,56,92,68,43,28.52,28.29,29,11,36,0.23
2013-6-9,88,73,59,63,58,50,96,65,28,28.53,28.42,18,4,24,0.00
2013-6-10,96,79,59,68,63,57,96,63,38,28.50,28.37,19,7,21,0.00
2013-6-11,98,84,69,67,61,54,77,49,26,28.47,28.35,29,14,36,0.00
2013-6-12,98,85,73,72,67,62,82,58,37,28.58,28.39,24,9,30,0.00
2013-6-13,87,75,62,66,60,54,77,61,44,28.70,28.55,16,7,18,0.00
2013-6-14,101,84,69,71,65,56,90,58,24,28.59,28.43,27,10,31,0.00
2013-6-15,92,80,70,69,65,56,83,62,31,28.58,28.44,34,9,37,0.00
2013-6-16,92,79,67,71,63,54,91,63,31,28.61,28.48,18,5,21,0.09
2013-6-17,84,74,65,69,65,62,96,74,50,28.64,28.45,36,5,43,0.35
2013-6-18,90,76,62,70,61,51,99,65,28,28.66,28.54,22,4,25,0.09
2013-6-19,86,75,63,69,64,60,95,70,48,28.61,28.50,27,8,28,0.04
2013-6-20,95,83,73,71,69,66,85,65,41,28.56,28.40,32,15,35,0.00
2013-6-21,96,86,76,71,67,64,73,56,36,28.54,28.45,33,16,35,0.00
2013-6-22,95,84,75,68,65,60,74,54,34,28.53,28.40,32,16,36,0.00
2013-6-23,96,84,77,68,65,60,71,54,33,28.50,28.39,30,15,34,0.00
2013-6-24,93,83,74,70,66,63,86,58,38,28.53,28.37,34,17,38,0.18
2013-6-25,97,85,75,73,69,66,84,61,37,28.44,28.28,35,17,36,0.00
2013-6-26,101,87,72,73,69,62,93,59,29,28.52,28.39,14,5,17,0.00
2013-6-27,102,84,72,74,72,64,94,69,35,28.59,28.41,22,6,32,0.00
2013-6-28,93,80,67,70,64,56,97,64,32,28.66,28.52,15,5,19,0.00
2013-6-29,89,76,63,62,57,49,86,56,30,28.62,28.49,22,6,22,0.00
2013-6-30,80,78,76,54,53,50,46,41,36,28.64,28.61,22,12,22,0.00
2013-7-1,82,70,55,56,51,46,91,55,31,28.77,28.69,17,6,21,0.00
2013-7-2,84,73,55,56,50,40,84,49,22,28.76,28.66,20,5,20,0.00
2013-7-3,86,72,58,56,51,44,87,52,25,28.74,28.57,13,4,18,0.00
2013-7-4,89,87,73,54,53,49,43,31,27,28.60,28.51,15,9,15,0.00
2013-7-5,91,84,73,62,57,54,66,42,30,28.57,28.44,30,14,33,0.00
2013-7-6,82,79,76,69,64,59,77,61,51,28.50,28.45,16,10,17,0.10
2013-7-7,98,92,82,64,62,60,53,37,29,28.57,28.50,26,16,27,0.00
2013-8-3,84,84,84,73,73,73,72,71,70,28.63,28.62,16,14,16,0.00
2013-8-14,78,76,74,62,61,61,63,61,57,28.78,28.75,8,7,8,0.00
2013-8-30,93,93,93,68,68,67,45,44,43,28.57,28.56,4,3,4,0.00
2013-9-1,84,82,80,72,71,71,73,69,65,28.57,28.54,12,6,12,0.00
2013-9-3,84,81,80,62,60,59,53,50,43,28.71,28.68,9,4,9,0.00
2013-9-7,100,90,77,66,64,61,66,44,28,28.56,28.51,13,6,16,0.00
2013-9-8,100,83,69,68,64,60,83,56,28,28.56,28.45,16,6,18,0.00
2013-9-9,95,81,67,66,60,53,79,52,26,28.56,28.48,27,8,30,0.00
2013-9-10,94,81,69,66,61,57,77,53,33,28.70,28.55,22,8,25,0.00
2013-9-11,92,80,67,67,62,58,82,58,36,28.74,28.63,14,5,16,0.00
2013-9-12,75,72,69,71,69,66,98,92,80,28.79,28.71,12,4,13,0.38
2013-9-13,74,69,64,66,53,50,83,58,43,28.79,28.65,13,5,15,0.00
2013-9-14,84,71,60,63,57,51,76,62,47,28.68,28.51,18,6,22,0.00
2013-9-15,91,74,65,69,63,60,93,73,40,28.75,28.55,19,6,20,0.18
2013-9-16,66,64,62,65,63,61,100,99,93,28.82,28.72,14,5,18,0.06
2013-9-17,83,72,65,70,67,65,100,86,59,28.76,28.52,20,8,22,0.01
2013-9-18,93,79,68,69,65,60,92,66,37,28.57,28.39,28,12,33,0.00
2013-9-19,90,77,68,68,65,58,88,69,46,28.63,28.40,23,9,27,0.01
2013-9-20,76,64,53,58,51,46,88,65,37,28.74,28.61,18,5,20,0.00
2013-9-21,82,64,48,55,51,47,98,67,34,28.66,28.51,16,3,21,0.00
2013-9-22,79,66,50,55,51,47,98,62,35,28.57,28.42,20,7,23,0.00
2013-9-23,80,68,56,54,51,48,80,56,38,28.46,28.32,28,11,31,0.00
2013-9-24,77,67,56,56,53,50,91,63,45,28.55,28.40,20,7,25,0.00
2013-9-25,83,66,50,59,54,49,100,70,35,28.56,28.37,22,5,23,0.00
2013-9-26,92,78,66,60,57,54,72,52,30,28.43,28.34,34,11,35,0.00
2013-9-27,88,78,67,64,59,56,72,54,40,28.51,28.39,30,12,31,0.00
2013-9-28,77,63,49,68,52,42,96,70,36,28.73,28.36,25,7,30,0.52
2013-9-29,75,59,43,56,45,38,100,67,28,28.74,28.55,12,2,14,0.00
2013-9-30,80,64,47,54,50,45,98,66,36,28.57,28.41,18,6,20,0.00
2013-10-1,85,70,56,63,57,50,83,65,42,28.56,28.45,17,6,19,0.00
2013-10-2,83,73,65,71,66,62,100,82,60,28.59,28.45,22,8,24,0.00
2013-10-3,88,78,71,69,67,66,89,71,50,28.46,28.29,29,14,35,0.00
2013-10-4,90,75,54,69,59,32,84,61,31,28.64,28.32,31,14,36,0.03
2013-10-5,63,53,47,35,32,29,58,46,32,28.74,28.59,24,8,26,0.00
2013-10-6,69,55,45,40,32,24,66,45,19,28.69,28.59,20,6,24,0.00
2013-10-7,75,56,37,41,36,32,88,53,23,28.81,28.66,14,3,16,0.00
2013-10-8,77,62,47,50,44,39,78,55,31,28.69,28.55,26,10,27,0.00
2013-10-9,80,66,56,54,50,48,77,60,33,28.64,28.54,26,11,28,0.00
2013-10-10,82,69,59,59,56,53,82,65,46,28.61,28.40,25,12,28,0.00
2013-10-11,81,69,58,61,50,32,83,56,18,28.55,28.34,24,12,28,0.00
2013-10-12,72,59,45,46,39,33,83,51,26,28.86,28.54,16,5,18,0.00
2013-10-13,70,59,41,48,42,36,85,55,35,28.95,28.80,25,8,27,0.00
2013-10-14,63,62,61,46,45,44,56,54,51,28.81,28.78,18,9,18,0.00
2013-10-15,60,52,44,40,39,37,77,60,46,28.77,28.67,20,8,24,0.00
2013-10-16,44,40,38,38,36,35,91,85,78,28.77,28.73,9,3,10,0.00
2013-10-23,66,54,47,45,43,40,90,68,43,28.77,28.63,11,3,12,0.00
2013-10-24,54,44,34,41,34,28,95,68,40,29.02,28.77,18,4,19,0.00
2013-10-25,59,45,30,40,32,26,96,65,31,29.03,28.75,22,7,24,0.00
2013-10-26,64,51,34,48,37,26,87,63,23,28.81,28.70,20,5,21,0.00
2013-10-27,66,46,28,37,32,26,95,63,29,28.78,28.54,20,6,25,0.00
2013-10-28,64,56,45,56,50,32,100,82,54,28.69,28.56,19,9,21,0.00
2013-10-29,70,61,55,67,59,53,100,94,81,28.62,28.51,18,6,19,1.87
2013-10-30,62,53,49,60,53,48,100,99,93,28.60,28.38,13,4,15,0.20
2013-10-31,63,52,45,50,45,38,100,79,41,28.38,28.24,23,6,30,0.63
2013-11-1,61,51,41,43,39,36,87,66,41,28.72,28.38,21,5,23,0.00
2013-11-2,60,48,37,37,33,29,82,60,31,28.90,28.72,12,4,13,0.00
2013-11-3,61,51,43,41,37,33,72,59,44,28.74,28.40,36,16,45,0.01
2013-11-4,63,54,48,52,44,40,87,69,49,28.67,28.40,27,8,33,0.00
2013-11-5,60,54,38,60,52,36,100,95,87,28.70,28.46,22,10,27,0.36
2013-11-6,47,38,33,36,34,32,96,85,61,28.94,28.69,20,5,24,0.00
2013-11-7,60,44,30,39,35,31,99,76,41,29.05,28.88,12,2,12,0.00
2013-11-8,64,51,40,39,37,35,83,59,34,28.88,28.47,37,14,42,0.05
2013-11-9,64,49,36,43,38,33,96,69,37,28.89,28.60,15,4,18,0.00
2013-11-10,38,37,36,37,36,35,97,95,94,28.91,28.88,4,2,4,0.00
2013-11-13,49,42,31,28,24,18,64,47,40,29.10,28.74,25,15,28,0.00
2013-11-14,38,38,36,23,21,21,55,49,47,28.74,28.68,20,13,26,0.00
2013-11-26,38,37,35,26,22,14,70,55,39,28.95,28.89,25,13,29,0.00
2013-11-27,38,34,29,18,17,14,61,48,41,29.00,28.78,18,9,20,0.00
2013-11-28,46,36,26,28,25,21,81,62,45,29.01,28.86,15,5,15,0.00
2013-11-29,54,44,25,32,29,21,81,57,43,29.01,28.75,22,9,25,0.00
2013-11-30,42,39,34,32,31,29,83,73,63,28.77,28.71,14,8,16,0.00
2013-12-10,42,37,31,31,16,14,83,40,30,28.89,28.71,19,8,19,0.00
2013-12-11,29,26,17,16,8,0,62,44,31,29.20,29.13,17,6,19,0.00
2013-12-12,46,35,20,24,22,14,80,56,39,29.04,28.68,24,12,24,0.00
2013-12-13,47,39,29,37,33,24,86,77,66,28.69,28.38,22,10,23,0.00
2013-12-15,60,47,34,28,24,21,70,41,26,28.77,28.64,23,7,23,0.00
2013-12-16,34,32,30,23,23,21,66,63,61,28.64,28.63,3,0,3,0.00
2013-12-17,55,42,26,33,24,18,80,51,31,28.95,28.80,18,4,21,0.00
2013-12-18,65,53,26,37,32,18,75,47,31,28.81,28.40,29,13,32,0.00
2013-12-22,24,24,24,18,18,18,80,79,76,28.77,28.76,11,7,11,0.00
2013-12-26,42,38,30,33,30,28,89,73,64,28.90,28.81,15,6,17,0.08
2013-12-27,47,38,28,33,30,26,94,75,56,28.95,28.80,9,4,9,0.01
2013-12-31,52,44,31,31,29,26,84,55,40,28.83,28.64,33,15,35,0.00
2014-1-1,26,26,24,21,21,21,82,78,76,28.64,28.60,17,11,19,0.00
2014-1-2,29,29,28,21,21,21,71,70,69,28.95,28.93,10,6,12,0.00